Time;durP1;ratioP1;P1;durP2;ratioP2;P2;SDS_P1;SDS_P2;PMS_P1;PMS_P2;Temp;Humidity;BMP_temperature;BMP_pressure;BME280_temperature;BME280_humidity;BME280_pressure;Samples;Min_cycle;Max_cycle;Signal;HPM_P1;HPM_P2
2024/03/12 00:01:07;;;;;;;15.48;4.97;;;;;;;12.44;100.00;99217.19;6239150;28;20046;-71
2024/03/12 00:04:08;;;;;;;11.77;5.35;;;;;;;12.41;100.00;99220.84;6224037;28;20050;-72
2024/03/12 00:07:10;;;;;;;12.70;5.13;;;;;;;12.42;100.00;99221.72;6223871;28;20135;-78
2024/03/12 00:10:15;;;;;;;11.93;4.90;;;;;;;12.27;100.00;99214.16;6223961;28;20482;-78
2024/03/12 00:13:16;;;;;;;12.38;4.50;;;;;;;12.26;100.00;99217.72;6223767;28;20104;-78
2024/03/12 00:16:19;;;;;;;13.00;4.40;;;;;;;12.14;100.00;99208.25;6222750;28;20136;-77
2024/03/12 00:19:21;;;;;;;12.25;4.80;;;;;;;12.26;100.00;99191.56;6223855;28;20073;-78
2024/03/12 00:22:22;;;;;;;13.60;4.22;;;;;;;12.35;100.00;99197.00;6239040;28;20057;-78
2024/03/12 00:25:23;;;;;;;11.00;4.15;;;;;;;12.25;100.00;99189.91;6238454;28;20482;-78
2024/03/12 00:28:24;;;;;;;12.57;3.92;;;;;;;12.27;100.00;99189.75;6238750;28;20050;-78
2024/03/12 00:31:25;;;;;;;9.80;3.75;;;;;;;12.25;100.00;99179.44;6223685;28;20046;-78
2024/03/12 00:34:29;;;;;;;10.35;4.22;;;;;;;12.29;100.00;99182.63;6223290;28;20133;-78
2024/03/12 00:37:33;;;;;;;10.82;3.92;;;;;;;12.30;100.00;99181.69;6223448;28;20084;-77
2024/03/12 00:40:33;;;;;;;16.42;4.32;;;;;;;12.27;100.00;99176.69;6221855;28;20579;-77
2024/03/12 00:43:35;;;;;;;15.32;3.85;;;;;;;12.28;100.00;99181.81;6223250;28;20058;-77
2024/03/12 00:46:36;;;;;;;8.03;3.73;;;;;;;12.23;100.00;99178.75;6238401;28;20053;-78
2024/03/12 00:49:37;;;;;;;12.27;4.53;;;;;;;12.09;100.00;99181.66;6223328;28;20287;-77
2024/03/12 00:52:40;;;;;;;12.65;4.30;;;;;;;12.30;100.00;99169.44;6222850;28;20054;-77
2024/03/12 00:55:41;;;;;;;16.00;4.68;;;;;;;12.37;100.00;99164.50;6238305;28;20471;-77
2024/03/12 00:58:42;;;;;;;8.50;4.10;;;;;;;12.32;100.00;99156.22;6241649;28;20549;-78
2024/03/12 01:01:43;;;;;;;9.38;4.90;;;;;;;12.29;100.00;99151.25;6228152;28;20054;-77
2024/03/12 01:04:45;;;;;;;12.20;4.93;;;;;;;12.27;100.00;99135.69;6228006;28;20085;-77
2024/03/12 01:07:52;;;;;;;12.13;4.93;;;;;;;12.32;100.00;99147.56;6228265;28;20053;-77
2024/03/12 01:10:55;;;;;;;10.48;5.18;;;;;;;12.43;100.00;99143.06;6227123;28;20089;-77
2024/03/12 01:13:58;;;;;;;8.65;5.03;;;;;;;12.42;100.00;99138.81;6241908;28;20073;-77
2024/03/12 01:16:59;;;;;;;13.00;5.10;;;;;;;12.46;100.00;99142.84;6242506;28;20512;-77
2024/03/12 01:19:59;;;;;;;10.88;4.72;;;;;;;12.35;100.00;99144.69;6226274;28;20049;-77
2024/03/12 01:23:01;;;;;;;13.85;5.35;;;;;;;12.28;100.00;99142.56;6226347;28;20045;-77
2024/03/12 01:26:06;;;;;;;15.17;6.07;;;;;;;12.22;100.00;99142.25;6225973;28;20061;-71
2024/03/12 01:29:07;;;;;;;10.38;5.90;;;;;;;12.17;100.00;99140.03;6242275;28;20341;-71
2024/03/12 01:32:10;;;;;;;10.68;6.10;;;;;;;12.21;100.00;99141.44;6226807;28;20054;-71
2024/03/12 01:35:14;;;;;;;9.75;5.53;;;;;;;12.08;100.00;99141.59;6226809;28;20077;-70
2024/03/12 01:38:15;;;;;;;13.27;5.78;;;;;;;11.97;100.00;99138.19;6226772;28;20085;-71
2024/03/12 01:41:16;;;;;;;10.30;5.55;;;;;;;11.86;100.00;99137.25;6226337;28;20050;-71
2024/03/12 01:44:17;;;;;;;10.63;6.55;;;;;;;11.91;100.00;99128.25;6241771;28;20107;-70
2024/03/12 01:47:20;;;;;;;15.45;6.57;;;;;;;11.88;100.00;99135.38;6226688;28;20530;-71
2024/03/12 01:50:24;;;;;;;11.00;6.18;;;;;;;11.83;100.00;99136.66;6226527;28;20057;-70
2024/03/12 01:53:25;;;;;;;15.75;6.60;;;;;;;11.92;100.00;99127.28;6226436;28;20050;-71
2024/03/12 01:56:26;;;;;;;11.43;6.53;;;;;;;11.69;100.00;99120.34;6226336;28;20061;-71
2024/03/12 01:59:27;;;;;;;13.55;6.13;;;;;;;11.61;100.00;99130.56;6241894;28;20081;-77
2024/03/12 02:02:28;;;;;;;9.15;6.22;;;;;;;11.60;100.00;99130.69;6225646;28;20081;-77
2024/03/12 02:05:29;;;;;;;15.02;5.88;;;;;;;11.59;100.00;99131.63;6242173;28;20140;-77
2024/03/12 02:08:32;;;;;;;11.38;7.03;;;;;;;11.43;100.00;99132.03;6225755;28;20402;-77
2024/03/12 02:11:32;;;;;;;;;;;;;;;11.27;100.00;99133.22;6226611;28;20390;-77
2024/03/12 02:14:35;;;;;;;12.00;6.30;;;;;;;11.15;100.00;99139.41;6226202;28;19925;-77
2024/03/12 02:17:39;;;;;;;16.10;6.70;;;;;;;11.15;100.00;99139.41;6226336;28;20054;-71
2024/03/12 02:20:43;;;;;;;11.20;6.65;;;;;;;11.14;100.00;99139.50;6225613;28;20086;-70
2024/03/12 02:23:44;;;;;;;14.00;7.30;;;;;;;11.07;100.00;99150.44;6224415;28;20502;-70
2024/03/12 02:26:45;;;;;;;12.50;6.68;;;;;;;11.06;100.00;99147.97;6240964;28;20081;-71
2024/03/12 02:29:45;;;;;;;14.73;6.88;;;;;;;11.05;100.00;99143.69;6240541;28;20068;-70
2024/03/12 02:32:47;;;;;;;14.07;7.50;;;;;;;10.98;100.00;99145.13;6233489;28;20065;-70
2024/03/12 02:35:48;;;;;;;14.48;6.90;;;;;;;10.97;100.00;99135.59;6261785;28;20049;-70
2024/03/12 02:38:49;;;;;;;15.65;7.05;;;;;;;10.92;100.00;99135.16;6262475;28;20087;-70
2024/03/12 02:41:50;;;;;;;13.98;7.10;;;;;;;10.92;100.00;99127.31;6266600;28;20543;-71
2024/03/12 02:44:56;;;;;;;19.40;7.60;;;;;;;10.94;100.00;99130.63;6264098;28;20042;-71
2024/03/12 02:47:57;;;;;;;11.63;6.55;;;;;;;10.85;100.00;99126.94;6261113;28;20057;-71
2024/03/12 02:50:58;;;;;;;11.88;6.68;;;;;;;10.84;100.00;99138.34;6265506;28;20045;-70
2024/03/12 02:53:59;;;;;;;13.50;6.93;;;;;;;10.76;100.00;99135.47;6251591;28;20057;-71
2024/03/12 02:57:01;;;;;;;14.23;7.30;;;;;;;10.71;100.00;99140.19;6249775;28;20060;-71
2024/03/12 03:00:11;;;;;;;14.82;7.53;;;;;;;10.65;100.00;99138.91;6265061;28;20096;-71
2024/03/12 03:03:12;;;;;;;15.73;7.50;;;;;;;10.58;100.00;99135.91;6248083;28;20061;-71
2024/03/12 03:06:13;;;;;;;12.35;7.13;;;;;;;10.52;100.00;99138.97;6257793;28;20057;-71
2024/03/12 03:09:14;;;;;;;14.85;7.68;;;;;;;10.41;100.00;99150.22;6264639;28;20083;-71
2024/03/12 03:12:15;;;;;;;12.10;7.30;;;;;;;10.53;100.00;99155.50;6251813;28;20051;-70
2024/03/12 03:15:16;;;;;;;12.63;7.57;;;;;;;10.45;100.00;99159.50;6234662;28;20054;-71
2024/03/12 03:18:16;;;;;;;13.40;7.88;;;;;;;10.42;100.00;99164.94;6223393;28;20065;-71
2024/03/12 03:21:17;;;;;;;15.68;7.70;;;;;;;10.56;100.00;99161.28;6238429;28;20050;-76
2024/03/12 03:24:23;;;;;;;13.93;7.82;;;;;;;10.53;100.00;99158.91;6224607;28;20074;-70
2024/03/12 03:27:27;;;;;;;16.15;9.00;;;;;;;10.46;100.00;99163.78;6224191;28;20053;-70
2024/03/12 03:30:31;;;;;;;12.90;7.97;;;;;;;10.51;100.00;99162.59;6223879;28;20417;-70
2024/03/12 03:33:33;;;;;;;22.05;8.30;;;;;;;10.51;100.00;99167.81;6223904;28;20513;-70
2024/03/12 03:36:34;;;;;;;12.48;8.13;;;;;;;10.39;100.00;99159.94;6247969;28;20053;-71
2024/03/12 03:39:37;;;;;;;12.68;7.35;;;;;;;10.33;100.00;99165.63;6247130;28;20076;-71
2024/03/12 03:42:42;;;;;;;19.05;8.27;;;;;;;10.36;100.00;99169.78;6248137;28;20064;-71
2024/03/12 03:45:43;;;;;;;14.23;8.32;;;;;;;10.23;100.00;99177.63;6248379;28;20053;-70
2024/03/12 03:48:49;;;;;;;15.32;8.73;;;;;;;10.16;100.00;99174.66;6248182;28;20053;-70
2024/03/12 03:51:50;;;;;;;16.20;8.85;;;;;;;10.31;100.00;99185.75;6248039;28;20046;-70
2024/03/12 03:54:53;;;;;;;13.27;7.65;;;;;;;10.27;100.00;99192.09;6248222;28;20132;-70
2024/03/12 03:57:54;;;;;;;;;;;;;;;10.27;100.00;99184.28;6247280;28;20053;-71
2024/03/12 04:00:55;;;;;;;16.73;7.55;;;;;;;10.43;100.00;99184.03;6251957;28;20246;-70
2024/03/12 04:03:57;;;;;;;12.90;7.88;;;;;;;10.43;100.00;99182.25;6267999;28;20488;-70
2024/03/12 04:06:57;;;;;;;15.82;7.75;;;;;;;10.56;100.00;99174.31;6271337;28;20053;-71
2024/03/12 04:09:59;;;;;;;18.85;8.65;;;;;;;10.48;100.00;99179.31;6271346;28;20060;-71
2024/03/12 04:13:00;;;;;;;18.73;8.93;;;;;;;10.26;100.00;99180.84;6271764;28;20052;-70
2024/03/12 04:16:01;;;;;;;16.00;8.02;;;;;;;10.39;100.00;99191.25;6256523;28;20513;-70
2024/03/12 04:19:04;;;;;;;16.25;8.38;;;;;;;10.21;100.00;99189.94;6246567;28;20132;-70
2024/03/12 04:22:05;;;;;;;16.50;8.48;;;;;;;10.36;100.00;99199.31;6247457;28;20049;-70
2024/03/12 04:25:07;;;;;;;19.35;9.52;;;;;;;10.37;100.00;99198.34;6246382;28;20444;-70
2024/03/12 04:28:10;;;;;;;18.35;9.48;;;;;;;10.44;100.00;99201.34;6246972;28;20186;-70
2024/03/12 04:31:13;;;;;;;17.38;9.20;;;;;;;10.32;100.00;99202.25;6255985;28;20543;-71
2024/03/12 04:34:14;;;;;;;19.10;8.65;;;;;;;10.42;100.00;99203.25;6264924;28;20057;-76
2024/03/12 04:37:15;;;;;;;16.17;8.93;;;;;;;10.25;100.00;99213.09;6246364;28;20053;-76
2024/03/12 04:40:17;;;;;;;19.20;8.13;;;;;;;10.17;100.00;99210.22;6247284;28;20053;-70
2024/03/12 04:43:18;;;;;;;14.63;8.35;;;;;;;10.25;100.00;99207.88;6252407;28;20049;-71
2024/03/12 04:46:19;;;;;;;18.88;8.65;;;;;;;10.21;100.00;99216.88;6266357;28;20071;-70
2024/03/12 04:49:20;;;;;;;15.70;9.00;;;;;;;10.27;100.00;99221.66;6226548;28;20054;-70
2024/03/12 04:52:24;;;;;;;17.00;9.57;;;;;;;10.31;100.00;99227.47;6237633;28;20061;-70
2024/03/12 04:55:27;;;;;;;15.95;9.30;;;;;;;10.28;100.00;99218.06;6238096;28;20050;-70
2024/03/12 04:58:29;;;;;;;19.05;9.65;;;;;;;10.37;100.00;99234.03;6222638;28;20050;-70
2024/03/12 05:01:30;;;;;;;18.97;9.63;;;;;;;10.35;100.00;99236.75;6235405;28;20148;-70
2024/03/12 05:04:31;;;;;;;16.38;8.65;;;;;;;10.36;100.00;99241.03;6237780;28;20049;-70
2024/03/12 05:07:32;;;;;;;17.17;9.10;;;;;;;10.44;100.00;99240.47;6244717;28;20085;-70
2024/03/12 05:10:33;;;;;;;18.73;9.75;;;;;;;10.62;100.00;99239.09;6244546;28;20050;-70
2024/03/12 05:13:34;;;;;;;17.25;9.48;;;;;;;10.62;100.00;99233.88;6244959;28;20132;-70
2024/03/12 05:16:37;;;;;;;19.30;8.75;;;;;;;10.69;100.00;99234.28;6244714;28;20428;-70
2024/03/12 05:19:38;;;;;;;14.60;8.40;;;;;;;10.76;100.00;99237.25;6246175;28;20056;-70
2024/03/12 05:22:39;;;;;;;14.50;8.63;;;;;;;10.75;100.00;99241.63;6261885;28;20050;-71
2024/03/12 05:25:41;;;;;;;16.27;9.05;;;;;;;10.80;100.00;99241.28;6262016;28;20493;-70
2024/03/12 05:28:41;;;;;;;17.73;9.57;;;;;;;10.78;100.00;99237.97;6263395;28;20140;-70
2024/03/12 05:31:43;;;;;;;15.88;8.45;;;;;;;10.84;100.00;99242.72;6261702;28;20041;-70
2024/03/12 05:34:52;;;;;;;29.33;15.23;;;;;;;10.91;100.00;99237.88;6262742;28;20080;-70
2024/03/12 05:38:02;;;;;;;18.75;10.98;;;;;;;10.92;100.00;99229.09;6245927;28;20050;-76
2024/03/12 05:50:51;;;;;;;15.40;7.85;;;;;;;11.09;100.00;99237.28;6251682;28;20056;-76
2024/03/12 05:53:54;;;;;;;11.25;7.45;;;;;;;11.06;100.00;99244.56;6248528;28;20053;-76
2024/03/12 05:56:54;;;;;;;15.75;7.28;;;;;;;10.99;100.00;99253.78;6265371;28;20056;-76
2024/03/12 05:59:55;;;;;;;12.27;7.40;;;;;;;11.01;100.00;99244.06;6249774;28;20115;-76
2024/03/12 06:02:59;;;;;;;12.05;7.28;;;;;;;10.98;100.00;99252.13;6248596;28;20062;-76
2024/03/12 06:06:00;;;;;;;16.40;8.32;;;;;;;11.03;100.00;99248.22;6249571;28;20435;-70
2024/03/12 06:09:01;;;;;;;15.65;8.40;;;;;;;11.02;100.00;99253.56;6248629;28;20049;-70
2024/03/12 06:12:02;;;;;;;14.20;7.07;;;;;;;11.18;100.00;99255.81;6248346;28;20049;-70
2024/03/12 06:15:05;;;;;;;18.48;8.90;;;;;;;11.34;100.00;99258.94;6248412;28;20053;-71
2024/03/12 06:18:07;;;;;;;14.15;7.60;;;;;;;11.34;100.00;99265.94;6248326;28;20057;-71
2024/03/12 06:21:07;;;;;;;20.65;8.38;;;;;;;11.48;100.00;99271.75;6264532;28;20049;-70
2024/03/12 06:24:08;;;;;;;15.07;8.43;;;;;;;11.35;100.00;99275.44;6249270;28;20049;-70
2024/03/12 06:27:09;;;;;;;16.08;8.25;;;;;;;11.40;100.00;99270.69;6249056;28;20068;-70
2024/03/12 06:30:11;;;;;;;14.00;7.15;;;;;;;11.46;100.00;99281.50;6249264;28;20060;-70
2024/03/12 06:33:12;;;;;;;20.77;6.88;;;;;;;11.44;100.00;99275.56;6249066;28;20060;-69
2024/03/12 06:36:16;;;;;;;12.23;7.05;;;;;;;11.62;100.00;99280.31;6247796;28;20049;-70
2024/03/12 06:39:17;;;;;;;11.30;6.35;;;;;;;11.59;100.00;99280.53;6247834;28;20417;-70
2024/03/12 06:42:24;;;;;;;8.90;5.68;;;;;;;11.41;100.00;99272.38;6247948;28;20168;-70
2024/03/12 06:45:28;;;;;;;8.65;4.97;;;;;;;11.37;100.00;99278.78;6247519;28;20610;-70
2024/03/12 06:48:29;;;;;;;7.80;4.93;;;;;;;11.34;100.00;99277.22;6248944;28;20058;-70
2024/03/12 06:51:32;;;;;;;12.30;5.65;;;;;;;11.50;100.00;99277.69;6248746;28;20053;-76
2024/03/12 06:54:34;;;;;;;9.55;4.57;;;;;;;11.38;100.00;99277.81;6248443;28;20508;-74
2024/03/12 06:57:36;;;;;;;9.02;5.68;;;;;;;11.34;100.00;99271.16;6248728;28;20077;-75
2024/03/12 07:00:40;;;;;;;12.38;5.53;;;;;;;11.38;100.00;99277.81;6248452;28;20054;-76
2024/03/12 07:03:42;;;;;;;19.23;9.85;;;;;;;11.54;100.00;99291.34;6247230;28;20409;-76
2024/03/12 07:06:44;;;;;;;12.30;5.97;;;;;;;11.60;100.00;99290.06;6248254;28;20517;-75
2024/03/12 07:09:46;;;;;;;14.20;7.33;;;;;;;11.63;100.00;99292.41;6247425;28;20080;-76
2024/03/12 07:12:47;;;;;;;12.50;6.63;;;;;;;11.48;100.00;99291.84;6247150;28;20049;-76
2024/03/12 07:15:49;;;;;;;17.83;8.55;;;;;;;11.47;100.00;99291.00;6248118;28;20057;-76
2024/03/12 07:18:54;;;;;;;15.98;6.15;;;;;;;11.56;100.00;99286.84;6246956;28;20493;-76
2024/03/12 07:21:55;;;;;;;16.10;7.35;;;;;;;11.66;100.00;99297.44;6246766;28;20402;-76
2024/03/12 07:24:56;;;;;;;13.43;6.65;;;;;;;11.73;100.00;99301.22;6247904;28;20053;-76
2024/03/12 07:28:05;;;;;;;13.48;6.28;;;;;;;11.85;100.00;99288.97;6248217;28;20056;-76
2024/03/12 07:31:06;;;;;;;10.10;4.18;;;;;;;11.62;100.00;99286.38;6248006;28;20072;-69
2024/03/12 07:34:07;;;;;;;9.98;4.82;;;;;;;11.88;100.00;99293.94;6246473;28;20053;-76
2024/03/12 07:37:10;;;;;;;7.47;3.95;;;;;;;11.60;100.00;99298.72;6247671;28;20095;-76
2024/03/12 07:40:15;;;;;;;8.35;4.60;;;;;;;11.84;100.00;99287.28;6247573;28;20049;-76
2024/03/12 07:43:16;;;;;;;19.35;7.03;;;;;;;12.02;99.67;99298.13;6247467;28;20536;-69
2024/03/12 07:46:20;;;;;;;13.05;4.53;;;;;;;12.27;98.82;99297.00;6246190;28;20085;-70
2024/03/12 07:49:21;;;;;;;9.20;5.18;;;;;;;12.22;98.40;99293.94;6246366;28;20053;-70
2024/03/12 07:52:22;;;;;;;7.97;4.57;;;;;;;12.39;97.00;99293.41;6245881;28;20103;-76
2024/03/12 07:55:23;;;;;;;7.43;4.00;;;;;;;12.10;95.03;99300.97;6247444;28;20494;-76
2024/03/12 07:58:24;;;;;;;7.40;3.67;;;;;;;12.25;94.67;99309.38;6246099;28;20050;-76
2024/03/12 08:01:26;;;;;;;7.15;4.03;;;;;;;12.22;95.65;99301.78;6247734;28;20045;-76
2024/03/12 08:04:27;;;;;;;7.65;3.38;;;;;;;12.11;94.51;99313.09;6245985;28;20053;-76
2024/03/12 08:07:29;;;;;;;4.82;3.13;;;;;;;11.98;94.66;99309.78;6245193;28;20060;-76
2024/03/12 08:10:30;;;;;;;4.80;3.00;;;;;;;12.19;95.65;99317.72;6247108;28;20049;-76
2024/03/12 08:13:34;;;;;;;6.00;3.30;;;;;;;12.26;96.28;99314.50;6246881;28;20042;-76
2024/03/12 08:16:36;;;;;;;6.13;3.47;;;;;;;12.34;95.36;99313.06;6246933;28;20046;-76
2024/03/12 08:19:37;;;;;;;6.43;3.80;;;;;;;12.29;94.90;99314.25;6246658;28;20057;-70
2024/03/12 08:22:38;;;;;;;4.93;3.13;;;;;;;12.27;95.61;99325.78;6246839;28;20136;-70
2024/03/12 08:25:39;;;;;;;6.70;3.08;;;;;;;12.15;95.81;99319.75;6261959;28;20103;-75
2024/03/12 08:28:40;;;;;;;5.35;2.97;;;;;;;12.10;95.27;99319.28;6246956;28;20056;-70
2024/03/12 08:31:41;;;;;;;6.28;3.60;;;;;;;12.23;94.78;99322.59;6245407;28;20045;-76
2024/03/12 08:34:42;;;;;;;6.63;3.58;;;;;;;12.33;95.55;99322.66;6245282;28;20490;-76
2024/03/12 08:37:44;;;;;;;6.72;2.85;;;;;;;12.32;94.96;99334.09;6246466;28;20068;-76
2024/03/12 08:40:45;;;;;;;5.45;3.40;;;;;;;12.60;95.38;99324.88;6245148;28;20056;-76
2024/03/12 08:43:46;;;;;;;4.25;2.92;;;;;;;13.29;92.92;99324.44;6246450;28;20049;-76
2024/03/12 08:46:47;;;;;;;5.70;3.03;;;;;;;13.26;90.65;99323.81;6246206;28;20084;-70
2024/03/12 08:49:49;;;;;;;6.97;3.25;;;;;;;13.85;88.15;99317.94;6245204;28;20054;-70
2024/03/12 08:52:50;;;;;;;6.40;2.88;;;;;;;14.07;84.94;99314.31;6246014;28;20533;-69
2024/03/12 08:55:51;;;;;;;5.20;2.72;;;;;;;14.46;81.35;99313.56;6245155;28;20057;-69
2024/03/12 08:58:52;;;;;;;6.10;2.25;;;;;;;14.75;79.81;99312.78;6246066;28;20087;-69
2024/03/12 09:01:59;;;;;;;3.85;2.05;;;;;;;14.76;75.44;99320.50;6244974;28;20042;-70
2024/03/12 09:05:02;;;;;;;3.63;2.20;;;;;;;14.96;77.25;99313.44;6246073;28;20045;-69
2024/03/12 09:08:04;;;;;;;3.97;2.38;;;;;;;14.78;77.43;99321.19;6245094;28;20057;-69
2024/03/12 09:11:05;;;;;;;4.30;2.60;;;;;;;14.63;76.89;99318.16;6246217;28;20126;-70
2024/03/12 09:14:06;;;;;;;3.70;2.13;;;;;;;14.47;76.97;99328.31;6245960;28;20110;-70
2024/03/12 09:17:07;;;;;;;2.25;1.83;;;;;;;14.39;75.97;99326.41;6261631;28;20049;-69
2024/03/12 09:20:10;;;;;;;6.22;2.60;;;;;;;14.76;77.49;99319.66;6250115;28;20404;-75
2024/03/12 09:23:10;;;;;;;3.80;1.92;;;;;;;14.73;75.29;99328.66;6249581;28;20053;-76
2024/03/12 09:26:12;;;;;;;4.85;2.00;;;;;;;14.73;72.69;99318.16;6250605;28;20458;-76
2024/03/12 09:29:13;;;;;;;3.63;2.33;;;;;;;14.10;73.54;99310.56;6251004;28;20052;-76
2024/03/12 09:32:13;;;;;;;3.50;1.95;;;;;;;14.17;76.48;99311.72;6249434;28;20278;-76
2024/03/12 09:35:14;;;;;;;3.92;1.85;;;;;;;13.87;75.52;99302.91;6266128;28;20107;-76
2024/03/12 09:38:16;;;;;;;3.33;1.92;;;;;;;14.07;73.96;99305.59;6250534;28;20085;-75
2024/03/12 09:41:20;;;;;;;2.40;1.63;;;;;;;14.17;74.31;99306.47;6265787;28;20045;-75
2024/03/12 09:44:21;;;;;;;5.15;1.63;;;;;;;14.21;73.66;99309.66;6250740;28;20449;-75
2024/03/12 09:47:23;;;;;;;5.07;2.10;;;;;;;14.52;72.05;99310.38;6250066;28;20080;-76
2024/03/12 09:50:25;;;;;;;2.67;1.67;;;;;;;14.97;72.41;99316.88;6265563;28;20489;-75
2024/03/12 09:53:26;;;;;;;1.35;1.13;;;;;;;14.74;69.96;99322.44;6250126;28;20053;-75
2024/03/12 09:56:28;;;;;;;1.47;1.23;;;;;;;14.49;67.87;99321.13;6250138;28;20045;-75
2024/03/12 09:59:31;;;;;;;2.92;1.38;;;;;;;14.52;71.16;99319.09;6249919;28;20069;-70
2024/03/12 10:02:31;;;;;;;2.20;1.00;;;;;;;14.60;71.30;99323.69;6250153;28;20054;-69
2024/03/12 10:05:34;;;;;;;1.58;1.10;;;;;;;14.55;68.55;99323.22;6249734;28;20076;-70
2024/03/12 10:08:36;;;;;;;1.55;1.20;;;;;;;14.74;68.77;99319.81;6250181;28;20053;-69
2024/03/12 10:11:44;;;;;;;1.88;1.13;;;;;;;15.02;68.73;99318.13;6248398;28;20045;-70
2024/03/12 10:14:45;;;;;;;2.20;1.25;;;;;;;15.30;67.26;99323.50;6249647;28;20457;-76
2024/03/12 10:18:00;;;;;;;2.75;0.80;;;;;;;15.37;65.31;99329.03;6249620;28;20053;-75
2024/03/12 10:21:01;;;;;;;1.65;1.02;;;;;;;15.79;64.94;99326.00;6249687;28;20057;-76
2024/03/12 10:24:17;;;;;;;1.90;0.98;;;;;;;15.68;63.10;99322.53;6249576;28;20053;-76
2024/03/12 10:27:18;;;;;;;5.72;1.55;;;;;;;15.97;63.44;99326.06;6248289;28;20056;-76
2024/03/12 10:30:26;;;;;;;3.20;1.60;;;;;;;15.74;64.18;99325.63;6247665;28;20060;-76
2024/03/12 10:33:30;;;;;;;1.65;1.30;;;;;;;16.08;64.02;99318.81;6249251;28;20129;-76
2024/03/12 10:36:32;;;;;;;1.98;1.33;;;;;;;16.32;62.56;99318.22;6247987;28;20065;-76
2024/03/12 10:39:35;;;;;;;2.85;1.30;;;;;;;16.39;61.38;99320.28;6247861;28;20088;-76
2024/03/12 10:42:36;;;;;;;1.10;0.70;;;;;;;16.15;60.05;99316.41;6249119;28;20084;-76
2024/03/12 10:45:38;;;;;;;4.60;0.70;;;;;;;15.82;57.71;99321.28;6248860;28;20045;-76
2024/03/12 10:48:40;;;;;;;0.85;0.47;;;;;;;15.91;60.31;99322.22;6249077;28;20045;-76
2024/03/12 10:51:42;;;;;;;2.67;0.80;;;;;;;15.77;58.70;99322.69;6264150;28;20053;-76
2024/03/12 10:54:46;;;;;;;1.25;0.68;;;;;;;15.65;60.25;99327.28;6264296;28;20064;-76
2024/03/12 10:57:54;;;;;;;0.55;0.43;;;;;;;15.75;59.95;99314.97;6247229;28;20053;-76
2024/03/12 11:00:56;;;;;;;3.72;0.52;;;;;;;15.87;59.02;99326.91;6247467;28;20451;-76
2024/03/12 11:03:59;;;;;;;0.77;0.45;;;;;;;15.90;59.11;99323.19;6248427;28;20057;-76
2024/03/12 11:07:03;;;;;;;1.13;0.68;;;;;;;16.17;57.61;99313.66;6248615;28;20049;-75
2024/03/12 11:10:09;;;;;;;0.52;0.38;;;;;;;16.21;56.30;99317.63;6247408;28;20076;-76
2024/03/12 11:13:13;;;;;;;1.50;0.40;;;;;;;16.22;57.55;99311.38;6263765;28;20052;-76
2024/03/12 11:16:17;;;;;;;0.88;0.50;;;;;;;15.86;56.31;99306.03;6247021;28;20432;-76
2024/03/12 11:19:22;;;;;;;0.60;0.45;;;;;;;16.03;57.75;99310.50;6247992;28;20049;-76
2024/03/12 11:22:23;;;;;;;1.27;0.60;;;;;;;16.01;55.91;99306.38;6248175;28;20053;-76
2024/03/12 11:25:43;;;;;;;0.88;0.60;;;;;;;16.36;55.28;99310.06;6247898;28;20060;-76
2024/03/12 11:28:48;;;;;;;0.73;0.68;;;;;;;16.58;55.92;99304.34;6247905;28;20049;-69
2024/03/12 11:31:51;;;;;;;1.00;0.90;;;;;;;16.56;55.19;99294.97;6247714;28;20045;-69
2024/03/12 11:34:53;;;;;;;;;;;;;;;16.92;55.54;99295.78;6247169;28;20088;-69
2024/03/12 11:37:57;;;;;;;5.60;0.70;;;;;;;17.26;55.62;99297.69;6247546;28;19925;-69
2024/03/12 11:41:02;;;;;;;0.65;0.50;;;;;;;17.23;53.06;99296.16;6247370;28;20417;-69
2024/03/12 11:44:03;;;;;;;1.75;0.90;;;;;;;17.69;54.72;99295.94;6246821;28;20198;-70
2024/03/12 11:47:06;;;;;;;2.27;0.70;;;;;;;17.81;53.09;99297.31;6247539;28;20053;-76
2024/03/12 11:50:32;;;;;;;0.70;0.50;;;;;;;18.00;51.57;99290.16;6247167;28;20144;-70
2024/03/12 11:53:36;;;;;;;0.60;0.50;;;;;;;17.93;53.72;99289.94;6262590;28;20092;-69
2024/03/12 11:56:37;;;;;;;0.80;0.50;;;;;;;17.36;51.16;99289.63;6245953;28;20045;-69
2024/03/12 11:59:38;;;;;;;2.20;0.60;;;;;;;16.79;51.71;99288.22;6246055;28;20132;-69
2024/03/12 12:02:45;;;;;;;1.27;0.40;;;;;;;16.78;52.79;99280.47;6245865;28;20183;-69
2024/03/12 12:05:45;;;;;;;1.75;0.65;;;;;;;16.73;51.50;99273.03;6246962;28;20568;-69
2024/03/12 12:08:49;;;;;;;0.55;0.40;;;;;;;16.61;51.58;99275.06;6245641;28;20053;-76
2024/03/12 12:11:50;;;;;;;0.80;0.70;;;;;;;16.92;52.38;99274.69;6246924;28;20556;-76
2024/03/12 12:14:56;;;;;;;1.45;0.50;;;;;;;16.54;54.25;99268.75;6246909;28;20141;-76
2024/03/12 12:18:08;;;;;;;0.73;0.40;;;;;;;16.40;54.25;99270.13;6245852;28;20049;-69
2024/03/12 12:21:10;;;;;;;;;;;;;;;16.48;52.99;99269.38;6245980;28;20046;-69
2024/03/12 12:24:14;;;;;;;0.80;0.70;;;;;;;16.35;53.32;99269.75;6246951;28;19921;-69
2024/03/12 12:27:17;;;;;;;1.27;0.43;;;;;;;16.52;53.66;99276.00;6246678;28;20132;-69
2024/03/12 12:30:20;;;;;;;2.03;0.55;;;;;;;16.47;53.67;99265.06;6262002;28;20489;-69
2024/03/12 12:33:26;;;;;;;0.85;0.70;;;;;;;16.48;54.47;99275.44;6246704;28;20060;-69
2024/03/12 12:36:34;;;;;;;0.40;0.40;;;;;;;16.42;51.80;99269.97;6246466;28;20068;-69
2024/03/12 12:39:35;;;;;;;0.88;0.77;;;;;;;16.89;52.86;99267.09;6245320;28;20111;-76
2024/03/12 12:42:40;;;;;;;1.25;0.77;;;;;;;17.00;53.23;99269.47;6261839;28;20095;-69
2024/03/12 12:45:41;;;;;;;1.60;0.95;;;;;;;17.28;53.24;99270.16;6245313;28;20045;-69
2024/03/12 12:48:45;;;;;;;4.35;2.80;;;;;;;17.17;54.46;99264.31;6244983;28;20053;-69
2024/03/12 12:51:46;;;;;;;3.42;1.45;;;;;;;16.96;54.04;99260.22;6246564;28;20059;-69
2024/03/12 12:54:48;;;;;;;1.60;0.88;;;;;;;17.55;54.09;99254.31;6245974;28;20053;-69
2024/03/12 12:57:58;;;;;;;0.77;0.70;;;;;;;17.75;51.23;99262.81;6246222;28;20061;-70
2024/03/12 13:01:05;;;;;;;3.05;0.77;;;;;;;16.91;50.00;99255.44;6246152;28;20085;-69
2024/03/12 13:04:23;;;;;;;1.65;0.60;;;;;;;17.67;51.63;99253.88;6246232;28;20046;-69
2024/03/12 13:07:29;;;;;;;1.30;0.60;;;;;;;17.81;51.24;99257.72;6244905;28;20107;-69
2024/03/12 13:10:31;;;;;;;1.48;0.70;;;;;;;17.47;50.82;99250.66;6244868;28;20077;-69
2024/03/12 13:13:33;;;;;;;0.95;0.70;;;;;;;16.96;50.99;99262.88;6244762;28;20045;-69
2024/03/12 13:16:34;;;;;;;3.80;1.13;;;;;;;16.71;51.71;99260.00;6261293;28;20394;-69
2024/03/12 13:19:36;;;;;;;13.80;4.03;;;;;;;16.75;51.60;99254.44;6245792;28;20045;-69
2024/03/12 13:22:37;;;;;;;1.33;0.45;;;;;;;16.81;52.24;99253.88;6246136;28;20045;-69
2024/03/12 13:25:38;;;;;;;1.08;0.85;;;;;;;16.99;53.39;99253.84;6261009;28;20053;-69
2024/03/12 13:28:43;;;;;;;5.88;1.52;;;;;;;17.24;52.31;99247.72;6245765;28;20580;-69
2024/03/12 13:31:44;;;;;;;2.47;0.95;;;;;;;17.52;49.49;99239.63;6244724;28;20123;-76
2024/03/12 13:34:45;;;;;;;1.00;0.50;;;;;;;17.38;51.17;99248.97;6245680;28;20489;-69
2024/03/12 13:37:46;;;;;;;1.80;0.77;;;;;;;17.04;50.62;99252.38;6244503;28;20060;-69
2024/03/12 13:40:47;;;;;;;0.85;0.30;;;;;;;16.85;50.34;99257.84;6245581;28;20053;-69
2024/03/12 13:43:48;;;;;;;1.10;0.38;;;;;;;17.12;50.70;99256.88;6244380;28;20432;-69
2024/03/12 13:46:49;;;;;;;0.95;0.52;;;;;;;17.69;48.52;99254.56;6245635;28;20558;-69
2024/03/12 13:49:50;;;;;;;0.40;0.30;;;;;;;18.13;49.26;99258.84;6244532;28;20084;-69
2024/03/12 13:52:52;;;;;;;1.05;0.52;;;;;;;18.20;45.95;99248.44;6244257;28;20049;-69
2024/03/12 13:55:57;;;;;;;1.05;0.50;;;;;;;18.14;46.89;99242.03;6245774;28;20049;-69
2024/03/12 13:58:57;;;;;;;4.60;1.27;;;;;;;18.21;46.50;99242.19;6244362;28;20099;-69
2024/03/12 14:02:01;;;;;;;2.22;0.60;;;;;;;17.78;46.07;99234.28;6244446;28;20049;-69
2024/03/12 14:05:03;;;;;;;3.25;1.30;;;;;;;17.71;48.08;99242.03;6246028;28;20471;-69
2024/03/12 14:08:06;;;;;;;0.50;0.40;;;;;;;17.63;45.97;99239.34;6249697;28;20513;-70
2024/03/12 14:11:07;;;;;;;0.82;0.52;;;;;;;17.91;47.34;99242.63;6248615;28;20049;-69
2024/03/12 14:14:08;;;;;;;3.40;0.90;;;;;;;17.87;45.79;99240.44;6248337;28;20042;-69
2024/03/12 14:17:09;;;;;;;1.33;0.68;;;;;;;17.69;47.21;99241.34;6248418;28;20128;-76
2024/03/12 14:20:13;;;;;;;3.37;0.93;;;;;;;17.45;47.80;99238.63;6248349;28;20065;-76